Live aus Altenrhein
LIVE
LSZR 250750Z VRB03KT 9999 BKN015 08/05 Q1023 NOSIG RMK B

People´s Info Center:

Öffnungszeiten Mo-Fr, 8-18 Uhr

 

info@peoples.ch

 
Aus Österreich:

T: +43 (0)5572 203 610

 

Aus CH / LI / DE:

T: +41 (0)71 858 51 60

 

Ihr Bordmenü

Regionale Spezialitäten – von Zuhause serviert.

 

Die People’s Viennaline bietet Ihnen auf jedem Flug saisonale und bevorzugt regionale Speisen. Wir legen Wert auf höchste Qualität. Dieser Service ist im Flugpreis inbegriffen und wichtiger Teil der People’s Philosophie.

 

People's Malbuch für die kleinen Gäste an Bord

Den jungen Gästen an Bord wird eine kleine Erlebniswelt auf 8 Seiten mit Nora, Laura (beide Flugzeuge) und Theo (Feuerwehrauto) zum Ausmalen überreicht. Die Kinder können aus den einfachen Schwarz-Weiss-Zeichnung ein kreatives, individuelles Bild mit bunten Farben entstehen lassen – ganz nach den Vorstellungen der kleinen Nachwuchskünstler an Bord. So beginnt der Urlaub von Zuhause aus für die ganze Familie schon an Bord - entspannt und angenehm.